• Join FlightAware (Why Join?)
  • Login
  • US Flag 
10:38PM EDT


 

Airport Tracker/Info


-or-


 

Live Flight TrackerFlight Track Log ✈ N103MK ✈ 01-May-2013 ✈ KGMU - KPDK

Flight Track Log - Related Links

Times and Time Zones

All times are in EDT time to prevent confusion due to time zone crossing. See the N103MK flight status page for this flight to view local times or setup timezone preferences in your user account.

Time Position Orientation Groundspeed Altitude Reporting Facility
EDT Latitude Longitude Course Direction KTS MPH feet Rate Location/Type
02:21PM 34.8760 -82.5406 219° Southwest  Level FlightAware Approximate
02:21PM 34.8906 -82.4839 252° West 166 191 6,000  Level Atlanta Center
02:22PM 34.8666 -82.5836 252° West  Level FlightAware Approximate
02:22PM 34.8828 -82.5447 261° West 190 219 6,000  Level Atlanta Center
02:23PM 34.8541 -82.6295 252° West  Level FlightAware Approximate
02:23PM 34.8669 -82.6058 252° West 190 219 6,000  Level Atlanta Center
02:24PM 34.8417 -82.6754 252° West  Level FlightAware Approximate
02:24PM 34.8508 -82.6619 251° West 190 219 6,000  Level Atlanta Center
02:25PM 34.8292 -82.7213 252° West  Level FlightAware Approximate
02:25PM 34.8350 -82.7253 253° West 185 213 6,000  Level Atlanta Center
02:26PM 34.8167 -82.7672 252° West  Level FlightAware Approximate
02:26PM 34.8189 -82.7889 253° West 191 220 6,000  Level Atlanta Center
02:27PM 34.8069 -82.8472 256° West 191 220 6,000  Level Atlanta Center
02:28PM 34.7908 -82.9108 253° West 197 227 6,000  Level Atlanta Center
02:29PM 34.7747 -82.9767 253° West 197 227 6,000  Level Atlanta Center
02:30PM 34.7586 -83.0375 252° West 197 227 6,000  Level Atlanta Center
02:31PM 34.7422 -83.1008 253° West 197 227 6,000  Level Atlanta Center
02:32PM 34.7283 -83.1644 255° West 202 232 6,000  Level Atlanta Center
02:33PM 34.7119 -83.2278 253° West 202 232 6,000  Level Atlanta Center
02:34PM 34.6914 -83.2936 249° West 208 239 6,000  Level Atlanta Center
02:35PM 34.6583 -83.3367 227° Southwest 193 222 6,000  Level Atlanta Center
02:36PM 34.6147 -83.3825 221° Southwest 193 222 6,000  Level Atlanta Center
02:37PM 34.5753 -83.4258 222° Southwest 193 222 6,000  Level Atlanta Center
02:38PM 34.5358 -83.4689 222° Southwest 193 222 6,100  Climbing Atlanta Center
02:39PM 34.4964 -83.5094 220° Southwest 193 222 6,100  Level Atlanta Center
02:40PM 34.4592 -83.5500 222° Southwest 188 216 6,100 -120 Level Atlanta Center
02:41PM 34.4194 -83.5956 223° Southwest 188 216 5,900 -120 Descending Atlanta Center
02:42PM 34.3822 -83.6361 222° Southwest 188 216 5,900  Level Atlanta Center
02:43PM 34.3425 -83.6764 220° Southwest 188 216 6,000  Climbing Atlanta Center
02:44PM 34.3053 -83.7194 224° Southwest 188 216 6,000  Level Atlanta Center
02:45PM 34.2678 -83.7572 220° Southwest 188 216 6,000  Level Atlanta Center
02:46PM 34.2000 -83.8333 223° Southwest 185 213 6,100 -60 Climbing Atlanta TRACON
02:47PM 34.1667 -83.8667 220° Southwest 183 211 5,900 -120 Descending Atlanta TRACON
02:48PM 34.1167 -83.9167 220° Southwest 183 211 5,900 -240 Level Atlanta TRACON
02:49PM 34.0833 -83.9500 220° Southwest 192 221 5,500 -480 Descending Atlanta TRACON
02:50PM 34.0333 -84.0000 220° Southwest 195 224 5,000 -480 Descending Atlanta TRACON
02:51PM 34.0000 -84.0333 220° Southwest 199 229 4,600 -600 Descending Atlanta TRACON
02:52PM 33.9500 -84.0833 220° Southwest 203 234 3,900 -660 Descending Atlanta TRACON
02:53PM 33.9167 -84.1167 220° Southwest 210 242 3,300 -480 Descending Atlanta TRACON
02:54PM 33.8833 -84.1833 239° Southwest 199 229 2,900 -540 Descending Atlanta TRACON
02:55PM 33.8500 -84.2333 231° Southwest 195 224 2,300 -540 Descending Atlanta TRACON
02:56PM 33.8333 -84.2833 248° West 148 170 1,900 -420 Descending Atlanta TRACON
02:58PM 33.8667 -84.3000 239° Southwest  Level FlightAware Approximate
03:05PM 33.8756 -84.3020 239° Southwest  Level Estimated